createdAt,value
2023-03-04T00:00:52.848Z,16.47
2023-03-04T00:03:54.255Z,15.37
2023-03-04T00:06:55.677Z,17.03
2023-03-04T00:09:57.318Z,16.87
2023-03-04T00:12:58.719Z,17.03
2023-03-04T00:16:00.212Z,17.47
2023-03-04T00:19:01.633Z,17.43
2023-03-04T00:22:04.445Z,17.10
2023-03-04T00:25:07.409Z,17.60
2023-03-04T00:28:08.807Z,18.07
2023-03-04T00:31:10.797Z,18.23
2023-03-04T00:34:12.182Z,18.80
2023-03-04T00:37:13.709Z,18.10
2023-03-04T00:40:15.207Z,18.83
2023-03-04T00:43:16.598Z,17.60
2023-03-04T00:46:18.028Z,17.87
2023-03-04T00:49:19.448Z,18.10
2023-03-04T00:52:21.030Z,18.97
2023-03-04T00:55:22.488Z,18.63
2023-03-04T00:58:23.941Z,19.73
2023-03-04T01:01:26.128Z,20.00
2023-03-04T01:04:27.677Z,20.30
2023-03-04T01:07:29.162Z,19.07
2023-03-04T01:10:31.044Z,20.53
2023-03-04T01:13:33.426Z,22.03
2023-03-04T01:16:34.947Z,20.33
2023-03-04T01:19:36.419Z,21.80
2023-03-04T01:22:38.154Z,20.83
2023-03-04T01:25:39.564Z,21.47
2023-03-04T01:28:41.098Z,21.03
2023-03-04T01:31:42.610Z,22.53
2023-03-04T01:34:44.154Z,20.93
2023-03-04T01:37:45.594Z,22.73
2023-03-04T01:40:48.406Z,22.63
2023-03-04T01:43:50.412Z,23.07
2023-03-04T01:46:53.795Z,23.00
2023-03-04T01:49:57.520Z,21.93
2023-03-04T01:52:59.381Z,22.63
2023-03-04T01:56:10.797Z,22.63
2023-03-04T01:59:20.891Z,23.30
2023-03-04T02:02:22.828Z,23.50
2023-03-04T02:05:24.706Z,25.10
2023-03-04T02:08:26.105Z,24.27
2023-03-04T02:11:27.587Z,26.20
2023-03-04T02:14:29.605Z,24.50
2023-03-04T02:17:33.217Z,24.60
2023-03-04T02:25:24.019Z,24.03
2023-03-04T02:28:25.910Z,26.17
2023-03-04T02:31:34.213Z,25.00
2023-03-04T02:34:36.471Z,26.07
2023-03-04T02:37:37.904Z,24.57
2023-03-04T02:40:43.047Z,26.80
2023-03-04T02:43:46.484Z,27.33
2023-03-04T02:46:50.140Z,25.37
2023-03-04T02:49:51.611Z,25.93
2023-03-04T02:52:53.013Z,26.67
2023-03-04T02:55:54.442Z,27.27
2023-03-04T02:58:57.963Z,27.20
2023-03-04T03:02:00.224Z,27.23
2023-03-04T03:05:01.939Z,27.87
2023-03-04T03:08:04.184Z,28.10
2023-03-04T03:11:06.853Z,26.97
2023-03-04T03:14:10.323Z,26.60
2023-03-04T03:17:11.781Z,26.57
2023-03-04T03:20:14.921Z,27.13
2023-03-04T03:23:17.992Z,27.80
2023-03-04T03:26:20.276Z,27.27
2023-03-04T03:29:21.692Z,27.33
2023-03-04T03:32:23.145Z,27.73
2023-03-04T03:35:26.140Z,28.13
2023-03-04T03:38:27.777Z,27.63
2023-03-04T03:41:29.253Z,27.90
2023-03-04T03:44:30.715Z,27.53
2023-03-04T03:47:32.208Z,26.30
2023-03-04T03:50:33.685Z,27.10
2023-03-04T03:53:35.105Z,26.10
2023-03-04T03:56:36.481Z,28.13
2023-03-04T03:59:37.863Z,27.53
2023-03-04T04:02:39.956Z,25.80
2023-03-04T04:05:41.406Z,28.33
2023-03-04T04:08:42.803Z,26.63
2023-03-04T04:11:44.192Z,28.10
2023-03-04T04:14:45.837Z,26.43
2023-03-04T04:17:47.268Z,26.80
2023-03-04T04:20:48.655Z,25.40
2023-03-04T04:23:50.048Z,27.60
2023-03-04T04:26:51.457Z,26.90
2023-03-04T04:29:52.853Z,27.87
2023-03-04T04:32:54.240Z,29.03
2023-03-04T04:35:55.684Z,28.33
2023-03-04T04:38:57.542Z,29.37
2023-03-04T04:41:58.949Z,30.53
2023-03-04T04:45:00.354Z,30.30
2023-03-04T04:48:01.767Z,30.10
2023-03-04T04:51:03.259Z,30.43
2023-03-04T04:54:05.643Z,31.17
2023-03-04T04:57:07.019Z,31.87
2023-03-04T05:00:10.001Z,32.63
2023-03-04T05:03:11.435Z,30.70
2023-03-04T05:06:13.226Z,29.03
2023-03-04T05:09:14.783Z,29.40
2023-03-04T05:12:16.157Z,27.57
2023-03-04T05:15:17.744Z,30.37
2023-03-04T05:18:20.416Z,30.20
2023-03-04T05:21:21.838Z,29.00
2023-03-04T05:24:23.219Z,27.90
2023-03-04T05:27:24.645Z,26.97
2023-03-04T05:30:26.019Z,26.13
2023-03-04T05:33:27.531Z,24.83
2023-03-04T05:36:28.904Z,23.63
2023-03-04T05:39:30.270Z,25.50
2023-03-04T05:42:31.688Z,23.33
2023-03-04T05:45:33.600Z,24.87
2023-03-04T05:48:35.042Z,23.40
2023-03-04T05:51:36.483Z,25.47
2023-03-04T05:54:37.889Z,25.47
2023-03-04T05:57:39.334Z,27.33
2023-03-04T06:00:40.758Z,25.13
2023-03-04T06:03:43.329Z,26.97
2023-03-04T06:06:46.557Z,25.47
2023-03-04T06:09:47.981Z,26.37
2023-03-04T06:12:49.396Z,25.90
2023-03-04T06:15:58.958Z,25.00
2023-03-04T06:19:00.347Z,25.17
2023-03-04T06:22:01.721Z,25.27
2023-03-04T06:25:03.621Z,26.63
2023-03-04T06:28:05.038Z,26.73
2023-03-04T06:31:06.442Z,26.50
2023-03-04T06:34:09.400Z,27.37
2023-03-04T06:37:10.804Z,26.43
2023-03-04T06:40:13.214Z,27.67
2023-03-04T06:43:14.598Z,25.43
2023-03-04T06:46:15.974Z,25.87
2023-03-04T06:49:17.533Z,24.53
2023-03-04T06:52:19.023Z,25.60
2023-03-04T06:55:20.570Z,25.70
2023-03-04T06:58:21.971Z,25.73
2023-03-04T07:01:25.942Z,24.87
2023-03-04T07:04:27.449Z,24.13
2023-03-04T07:07:28.980Z,25.43
2023-03-04T07:10:30.449Z,25.30
2023-03-04T07:13:32.539Z,25.37
2023-03-04T07:16:34.097Z,25.60
2023-03-04T07:19:35.495Z,24.40
2023-03-04T07:22:37.183Z,24.50
2023-03-04T07:25:38.639Z,25.47
2023-03-04T07:28:40.295Z,24.80
2023-03-04T07:31:42.140Z,24.17
2023-03-04T07:34:43.523Z,24.70
2023-03-04T07:37:45.086Z,24.90
2023-03-04T07:40:55.250Z,23.93
2023-03-04T07:43:58.099Z,26.03
2023-03-04T07:46:59.465Z,24.93
2023-03-04T07:50:00.917Z,25.27
2023-03-04T07:53:02.303Z,24.77
2023-03-04T07:56:04.998Z,25.37
2023-03-04T07:59:06.472Z,26.60
2023-03-04T08:02:08.035Z,25.03
2023-03-04T08:05:09.590Z,24.67
2023-03-04T08:08:11.038Z,25.50
2023-03-04T08:11:15.969Z,24.90
2023-03-04T08:14:17.416Z,26.13
2023-03-04T08:17:18.832Z,24.87
2023-03-04T08:20:20.331Z,25.97
2023-03-04T08:23:21.737Z,27.27
2023-03-04T08:26:26.497Z,25.90
2023-03-04T08:29:28.272Z,27.27
2023-03-04T08:32:30.001Z,28.17
2023-03-04T08:35:31.667Z,26.73
2023-03-04T08:38:33.134Z,28.20
2023-03-04T08:41:34.511Z,25.83
2023-03-04T08:44:35.885Z,25.60
2023-03-04T08:47:37.952Z,25.77
2023-03-04T08:50:39.358Z,25.97
2023-03-04T08:53:41.382Z,28.03
2023-03-04T08:56:42.831Z,27.53
2023-03-04T08:59:44.225Z,26.13
2023-03-04T09:02:45.801Z,27.30
2023-03-04T09:05:48.256Z,25.80
2023-03-04T09:08:49.756Z,27.57
2023-03-04T09:11:51.202Z,27.77
2023-03-04T09:15:08.409Z,27.07
2023-03-04T09:18:12.150Z,28.03
2023-03-04T09:21:13.567Z,28.57
2023-03-04T09:24:15.267Z,27.77
2023-03-04T09:27:16.701Z,27.17
2023-03-04T09:30:18.475Z,29.77
2023-03-04T09:33:19.891Z,28.53
2023-03-04T09:36:22.023Z,28.63
2023-03-04T09:39:23.486Z,29.10
2023-03-04T09:42:36.932Z,29.40
2023-03-04T09:45:47.072Z,27.90
2023-03-04T09:48:54.603Z,27.97
2023-03-04T09:52:25.691Z,27.10
2023-03-04T09:55:39.211Z,29.17
2023-03-04T09:59:01.430Z,29.27
2023-03-04T10:02:19.085Z,27.83
2023-03-04T10:05:21.967Z,29.43
2023-03-04T10:08:41.238Z,29.70
2023-03-04T10:11:50.324Z,30.57
2023-03-04T10:15:00.706Z,29.10
2023-03-04T10:18:37.646Z,29.83
2023-03-04T10:21:43.001Z,30.20
2023-03-04T10:24:47.046Z,30.97
2023-03-04T10:27:54.008Z,30.17
2023-03-04T10:31:25.997Z,31.33
2023-03-04T10:34:27.699Z,29.23
2023-03-04T10:37:45.502Z,30.57
2023-03-04T10:40:47.098Z,30.47
2023-03-04T10:44:00.698Z,31.00
2023-03-04T10:47:02.204Z,30.43
2023-03-04T10:50:05.466Z,31.30
2023-03-04T10:53:25.252Z,30.53
2023-03-04T10:56:36.519Z,30.20
2023-03-04T10:59:43.374Z,29.20
2023-03-04T11:02:46.305Z,28.70
2023-03-04T11:05:48.312Z,29.70
2023-03-04T11:08:55.274Z,28.57
2023-03-04T11:12:00.290Z,28.80
2023-03-04T11:15:03.179Z,29.63
2023-03-04T11:18:10.069Z,28.43
2023-03-04T11:21:19.046Z,28.50
2023-03-04T11:24:29.591Z,28.30
2023-03-04T11:27:44.324Z,30.37
2023-03-04T11:30:50.043Z,28.43
2023-03-04T11:33:58.326Z,28.47
2023-03-04T11:37:08.299Z,27.93
2023-03-04T11:40:16.289Z,27.73
2023-03-04T11:43:24.551Z,28.70
2023-03-04T11:46:44.020Z,26.97
2023-03-04T11:50:03.396Z,27.30
2023-03-04T11:53:25.534Z,26.03
2023-03-04T11:56:33.079Z,26.13
2023-03-04T11:59:42.640Z,26.70
2023-03-04T12:03:18.454Z,27.00
2023-03-04T12:06:26.040Z,23.63
2023-03-04T12:09:57.102Z,24.50
2023-03-04T12:13:13.715Z,23.80
2023-03-04T12:16:48.566Z,23.67
2023-03-04T12:19:58.940Z,22.60
2023-03-04T12:23:22.263Z,24.20
2023-03-04T12:26:36.873Z,23.80
2023-03-04T12:29:44.353Z,22.37
2023-03-04T12:33:03.746Z,20.73
2023-03-04T12:36:29.998Z,20.13
2023-03-04T12:39:56.433Z,21.87
2023-03-04T12:43:09.633Z,22.40
2023-03-04T12:46:30.802Z,21.63
2023-03-04T12:50:03.268Z,19.50
2023-03-04T12:53:13.851Z,22.90
2023-03-04T12:56:22.641Z,22.73
2023-03-04T12:59:26.831Z,25.90
2023-03-04T13:03:06.413Z,22.80
2023-03-04T13:06:26.508Z,22.63
2023-03-04T13:09:43.778Z,20.77
2023-03-04T13:12:54.631Z,21.27
2023-03-04T13:16:23.315Z,19.20
2023-03-04T13:19:52.719Z,19.27
2023-03-04T13:22:58.340Z,19.47
2023-03-04T13:26:00.136Z,17.43
2023-03-04T13:29:14.050Z,18.20
2023-03-04T13:32:36.803Z,18.53
2023-03-04T13:35:50.452Z,18.20
2023-03-04T13:39:14.114Z,19.47
2023-03-04T13:42:39.869Z,18.77
2023-03-04T13:45:41.296Z,18.10
2023-03-04T13:48:43.081Z,18.23
2023-03-04T13:51:45.915Z,18.70
2023-03-04T13:54:47.379Z,17.73
2023-03-04T13:57:50.924Z,17.40
2023-03-04T14:00:54.788Z,18.13
2023-03-04T14:03:56.289Z,18.23
2023-03-04T14:07:00.149Z,19.67
2023-03-04T14:10:07.459Z,18.03
2023-03-04T14:13:09.213Z,18.43
2023-03-04T14:16:11.584Z,17.77
2023-03-04T14:19:24.619Z,18.00
2023-03-04T14:22:29.440Z,17.93
2023-03-04T14:25:36.985Z,17.90
2023-03-04T14:28:50.115Z,17.33
2023-03-04T14:31:53.177Z,18.00
2023-03-04T14:34:59.170Z,18.13
2023-03-04T14:38:06.381Z,19.40
2023-03-04T14:41:15.086Z,18.53
2023-03-04T14:44:36.067Z,18.67
2023-03-04T14:47:41.850Z,29.53
2023-03-04T14:50:51.287Z,17.50
2023-03-04T14:53:56.556Z,18.07
2023-03-04T14:57:00.636Z,18.00
2023-03-04T15:00:20.554Z,17.20
2023-03-04T15:03:30.335Z,17.50
2023-03-04T15:06:37.904Z,17.30
2023-03-04T15:09:40.916Z,17.07
2023-03-04T15:12:51.393Z,18.13
2023-03-04T15:16:00.886Z,17.20
2023-03-04T15:19:05.890Z,19.43
2023-03-04T15:22:08.045Z,18.97
2023-03-04T15:25:15.186Z,17.70
2023-03-04T15:28:20.641Z,19.40
2023-03-04T15:31:23.898Z,18.87
2023-03-04T15:34:25.287Z,18.43
2023-03-04T15:37:29.310Z,17.60
2023-03-04T15:40:38.880Z,17.67
2023-03-04T15:43:40.268Z,17.53
2023-03-04T15:46:42.064Z,17.80
2023-03-04T15:49:46.909Z,17.63
2023-03-04T15:52:50.862Z,17.90
2023-03-04T15:55:52.809Z,18.57
2023-03-04T15:58:56.689Z,18.20
2023-03-04T16:01:58.104Z,18.17
2023-03-04T16:04:59.529Z,18.30
2023-03-04T16:08:01.518Z,18.40
2023-03-04T16:11:03.045Z,17.23
2023-03-04T16:14:04.417Z,17.30
2023-03-04T16:17:05.829Z,17.03
2023-03-04T16:20:07.457Z,17.97
2023-03-04T16:23:23.746Z,16.97
2023-03-04T16:26:31.217Z,17.80
2023-03-04T16:29:32.586Z,16.47
2023-03-04T16:32:35.105Z,18.87
2023-03-04T16:35:37.582Z,17.77
2023-03-04T16:38:38.995Z,21.80
2023-03-04T16:41:40.365Z,20.87
2023-03-04T16:44:41.763Z,21.27
2023-03-04T16:47:43.287Z,21.83
2023-03-04T16:50:44.862Z,23.03
2023-03-04T16:53:53.274Z,20.43
2023-03-04T16:56:54.716Z,19.23
2023-03-04T16:59:56.207Z,20.70
2023-03-04T17:03:00.294Z,19.07
2023-03-04T17:06:01.775Z,19.03
2023-03-04T17:09:03.261Z,18.40
2023-03-04T17:12:06.462Z,20.20
2023-03-04T17:15:11.448Z,19.53
2023-03-04T17:18:12.877Z,20.03
2023-03-04T17:21:18.546Z,18.60
2023-03-04T17:24:19.985Z,18.77
2023-03-04T17:27:21.380Z,19.07
2023-03-04T17:30:22.819Z,19.03
2023-03-04T17:33:24.259Z,19.07
2023-03-04T17:36:25.627Z,19.17
2023-03-04T17:39:27.109Z,18.47
2023-03-04T17:42:28.544Z,18.47
2023-03-04T17:45:29.989Z,18.43
2023-03-04T17:48:31.698Z,18.13
2023-03-04T17:51:36.153Z,18.17
2023-03-04T17:54:37.869Z,18.40
2023-03-04T17:57:39.273Z,17.80
2023-03-04T18:00:40.724Z,16.97
2023-03-04T18:03:42.093Z,17.53
2023-03-04T18:06:43.620Z,16.97
2023-03-04T18:09:47.044Z,15.53
2023-03-04T18:12:48.477Z,15.87
2023-03-04T18:15:49.999Z,17.97
2023-03-04T18:18:52.072Z,17.20
2023-03-04T18:21:53.457Z,17.30
2023-03-04T18:24:54.918Z,16.67
2023-03-04T18:27:56.347Z,16.17
2023-03-04T18:30:57.802Z,16.27
2023-03-04T18:34:01.332Z,16.30
2023-03-04T18:37:02.822Z,15.17
2023-03-04T18:40:04.880Z,16.17
2023-03-04T18:43:06.352Z,15.87
2023-03-04T18:46:09.595Z,14.97
2023-03-04T18:49:12.748Z,14.93
2023-03-04T18:52:14.334Z,15.57
2023-03-04T18:55:16.243Z,15.47
2023-03-04T18:58:17.670Z,14.83
2023-03-04T19:01:22.060Z,15.73
2023-03-04T19:04:27.562Z,14.90
2023-03-04T19:07:28.986Z,15.67
2023-03-04T19:10:30.593Z,15.60
2023-03-04T19:13:32.848Z,15.67
2023-03-04T19:16:34.454Z,17.07
2023-03-04T19:19:36.412Z,16.33
2023-03-04T19:22:37.854Z,15.53
2023-03-04T19:25:40.312Z,16.13
2023-03-04T19:28:42.204Z,14.90
2023-03-04T19:31:43.586Z,16.00
2023-03-04T19:34:46.320Z,16.53
2023-03-04T19:37:47.700Z,16.23
2023-03-04T19:40:49.102Z,16.27
2023-03-04T19:43:50.606Z,16.57
2023-03-04T19:46:52.097Z,15.87
2023-03-04T19:49:53.572Z,16.13
2023-03-04T19:52:55.030Z,16.13
2023-03-04T19:55:56.450Z,16.07
2023-03-04T19:58:58.262Z,15.40
2023-03-04T20:02:01.209Z,15.83
2023-03-04T20:05:03.438Z,15.83
2023-03-04T20:08:05.385Z,16.20
2023-03-04T20:11:11.315Z,16.77
2023-03-04T20:14:13.204Z,16.50
2023-03-04T20:17:15.108Z,15.87
2023-03-04T20:20:16.748Z,15.30
2023-03-04T20:23:20.269Z,17.30
2023-03-04T20:26:21.824Z,15.87
2023-03-04T20:29:28.426Z,15.70
2023-03-04T20:32:29.904Z,15.80
2023-03-04T20:35:31.307Z,16.03
2023-03-04T20:38:32.745Z,16.47
2023-03-04T20:41:34.672Z,16.17
2023-03-04T20:44:36.154Z,14.97
2023-03-04T20:47:39.599Z,15.60
2023-03-04T20:50:41.203Z,16.57
2023-03-04T20:53:42.641Z,15.83
2023-03-04T20:56:44.185Z,16.50
2023-03-04T20:59:45.575Z,16.47
2023-03-04T21:02:46.966Z,16.63
2023-03-04T21:05:48.354Z,16.77
2023-03-04T21:08:49.910Z,16.20
2023-03-04T21:11:51.479Z,16.00
2023-03-04T21:14:52.912Z,16.73
2023-03-04T21:17:54.500Z,14.97
2023-03-04T21:20:55.968Z,16.00
2023-03-04T21:23:59.196Z,15.80
2023-03-04T21:27:01.510Z,15.23
2023-03-04T21:30:03.051Z,15.50
2023-03-04T21:33:05.598Z,16.03
2023-03-04T21:36:07.309Z,15.50
2023-03-04T21:39:14.605Z,17.60
2023-03-04T21:42:16.071Z,15.60
2023-03-04T21:45:17.547Z,17.33
2023-03-04T21:48:19.197Z,18.13
2023-03-04T21:51:20.626Z,15.93
2023-03-04T21:54:22.970Z,15.93
2023-03-04T21:57:24.380Z,16.53
2023-03-04T22:00:25.977Z,15.43
2023-03-04T22:03:27.567Z,16.30
2023-03-04T22:06:31.315Z,15.63
2023-03-04T22:09:33.069Z,15.93
2023-03-04T22:12:34.434Z,17.67
2023-03-04T22:15:37.706Z,19.33
2023-03-04T22:18:40.744Z,17.67
2023-03-04T22:21:42.315Z,18.23
2023-03-04T22:24:43.696Z,16.40
2023-03-04T22:27:45.154Z,17.03
2023-03-04T22:30:46.625Z,16.73
2023-03-04T22:33:48.045Z,16.27
2023-03-04T22:36:49.517Z,16.83
2023-03-04T22:39:50.925Z,17.33
2023-03-04T22:42:52.814Z,15.33
2023-03-04T22:45:54.305Z,16.87
2023-03-04T22:48:57.967Z,16.13
2023-03-04T22:51:59.402Z,16.93
2023-03-04T22:55:00.933Z,17.73
2023-03-04T22:58:03.844Z,16.57
2023-03-04T23:01:05.814Z,16.53
2023-03-04T23:04:07.241Z,16.27
2023-03-04T23:07:08.637Z,16.73
2023-03-04T23:10:17.157Z,17.23
2023-03-04T23:13:18.596Z,15.83
2023-03-04T23:16:21.082Z,17.40
2023-03-04T23:19:22.505Z,17.30
2023-03-04T23:22:24.153Z,16.80
2023-03-04T23:25:25.988Z,17.03
2023-03-04T23:28:27.694Z,18.20
2023-03-04T23:31:30.080Z,17.47
2023-03-04T23:34:31.492Z,17.40
2023-03-04T23:37:33.013Z,17.73
2023-03-04T23:40:34.615Z,17.63
2023-03-04T23:43:36.103Z,17.43
2023-03-04T23:46:37.586Z,17.60
2023-03-04T23:49:38.954Z,17.37
2023-03-04T23:52:40.396Z,17.60
2023-03-04T23:55:41.881Z,17.03
2023-03-04T23:58:44.291Z,17.40
